sensor_id;sensor_type;location;lat;lon;timestamp;P1;durP1;ratioP1;P2;durP2;ratioP2
26864;SDS011;40618;51.166;10.322;2024-03-02T00:01:14;22.17;;;13.05;;
26864;SDS011;40618;51.166;10.322;2024-03-02T00:03:41;19.30;;;12.45;;
26864;SDS011;40618;51.166;10.322;2024-03-02T00:06:08;20.10;;;12.35;;
26864;SDS011;40618;51.166;10.322;2024-03-02T00:08:35;19.65;;;13.05;;
26864;SDS011;40618;51.166;10.322;2024-03-02T00:11:00;20.48;;;12.02;;
26864;SDS011;40618;51.166;10.322;2024-03-02T00:13:29;18.73;;;12.05;;
26864;SDS011;40618;51.166;10.322;2024-03-02T00:15:57;18.85;;;12.50;;
26864;SDS011;40618;51.166;10.322;2024-03-02T00:21:00;20.83;;;12.73;;
26864;SDS011;40618;51.166;10.322;2024-03-02T00:23:29;17.60;;;11.63;;
26864;SDS011;40618;51.166;10.322;2024-03-02T00:25:56;18.35;;;11.30;;
26864;SDS011;40618;51.166;10.322;2024-03-02T00:31:08;18.83;;;12.38;;
26864;SDS011;40618;51.166;10.322;2024-03-02T00:33:42;26.20;;;13.50;;
26864;SDS011;40618;51.166;10.322;2024-03-02T00:36:10;18.35;;;11.88;;
26864;SDS011;40618;51.166;10.322;2024-03-02T00:38:51;18.75;;;12.63;;
26864;SDS011;40618;51.166;10.322;2024-03-02T00:41:25;17.17;;;11.35;;
26864;SDS011;40618;51.166;10.322;2024-03-02T00:44:00;20.35;;;12.15;;
26864;SDS011;40618;51.166;10.322;2024-03-02T00:46:34;16.63;;;10.65;;
26864;SDS011;40618;51.166;10.322;2024-03-02T00:49:21;18.15;;;11.50;;
26864;SDS011;40618;51.166;10.322;2024-03-02T00:51:50;17.77;;;11.43;;
26864;SDS011;40618;51.166;10.322;2024-03-02T00:54:21;20.67;;;11.48;;
26864;SDS011;40618;51.166;10.322;2024-03-02T00:56:50;19.52;;;11.93;;
26864;SDS011;40618;51.166;10.322;2024-03-02T01:01:48;14.85;;;9.82;;
26864;SDS011;40618;51.166;10.322;2024-03-02T01:04:15;19.95;;;11.52;;
26864;SDS011;40618;51.166;10.322;2024-03-02T01:06:42;18.48;;;11.48;;
26864;SDS011;40618;51.166;10.322;2024-03-02T01:09:08;19.10;;;11.15;;
26864;SDS011;40618;51.166;10.322;2024-03-02T01:11:34;18.52;;;11.82;;
26864;SDS011;40618;51.166;10.322;2024-03-02T01:14:00;16.70;;;10.93;;
26864;SDS011;40618;51.166;10.322;2024-03-02T01:16:25;19.45;;;11.18;;
26864;SDS011;40618;51.166;10.322;2024-03-02T01:18:51;20.27;;;11.70;;
26864;SDS011;40618;51.166;10.322;2024-03-02T01:21:17;24.45;;;12.85;;
26864;SDS011;40618;51.166;10.322;2024-03-02T01:23:42;20.90;;;12.50;;
26864;SDS011;40618;51.166;10.322;2024-03-02T01:26:08;20.05;;;12.60;;
26864;SDS011;40618;51.166;10.322;2024-03-02T01:28:35;18.00;;;12.23;;
26864;SDS011;40618;51.166;10.322;2024-03-02T01:31:01;20.55;;;11.60;;
26864;SDS011;40618;51.166;10.322;2024-03-02T01:33:28;20.25;;;12.02;;
26864;SDS011;40618;51.166;10.322;2024-03-02T01:35:54;18.83;;;12.68;;
26864;SDS011;40618;51.166;10.322;2024-03-02T01:38:20;20.23;;;12.50;;
26864;SDS011;40618;51.166;10.322;2024-03-02T01:40:45;18.23;;;11.75;;
26864;SDS011;40618;51.166;10.322;2024-03-02T01:43:11;19.42;;;12.75;;
26864;SDS011;40618;51.166;10.322;2024-03-02T01:45:37;19.00;;;11.90;;
26864;SDS011;40618;51.166;10.322;2024-03-02T01:48:06;18.42;;;12.25;;
26864;SDS011;40618;51.166;10.322;2024-03-02T01:53:00;18.08;;;10.20;;
26864;SDS011;40618;51.166;10.322;2024-03-02T01:55:27;18.73;;;11.43;;
26864;SDS011;40618;51.166;10.322;2024-03-02T01:57:55;16.08;;;10.52;;
26864;SDS011;40618;51.166;10.322;2024-03-02T02:00:21;16.15;;;11.13;;
26864;SDS011;40618;51.166;10.322;2024-03-02T02:02:50;18.48;;;11.52;;
26864;SDS011;40618;51.166;10.322;2024-03-02T02:05:17;18.15;;;11.45;;
26864;SDS011;40618;51.166;10.322;2024-03-02T02:07:43;17.23;;;11.75;;
26864;SDS011;40618;51.166;10.322;2024-03-02T02:10:09;18.05;;;11.40;;
26864;SDS011;40618;51.166;10.322;2024-03-02T02:12:36;16.65;;;11.40;;
26864;SDS011;40618;51.166;10.322;2024-03-02T02:15:04;21.08;;;12.13;;
26864;SDS011;40618;51.166;10.322;2024-03-02T02:17:53;22.33;;;14.03;;
26864;SDS011;40618;51.166;10.322;2024-03-02T02:20:20;33.03;;;18.40;;
26864;SDS011;40618;51.166;10.322;2024-03-02T02:23:04;34.33;;;19.38;;
26864;SDS011;40618;51.166;10.322;2024-03-02T02:25:32;24.00;;;15.43;;
26864;SDS011;40618;51.166;10.322;2024-03-02T02:27:58;22.30;;;14.27;;
26864;SDS011;40618;51.166;10.322;2024-03-02T02:30:25;19.52;;;13.27;;
26864;SDS011;40618;51.166;10.322;2024-03-02T02:32:55;18.80;;;12.45;;
26864;SDS011;40618;51.166;10.322;2024-03-02T02:35:22;18.77;;;11.95;;
26864;SDS011;40618;51.166;10.322;2024-03-02T02:37:49;19.45;;;12.13;;
26864;SDS011;40618;51.166;10.322;2024-03-02T02:40:15;17.20;;;11.50;;
26864;SDS011;40618;51.166;10.322;2024-03-02T02:42:43;19.48;;;12.32;;
26864;SDS011;40618;51.166;10.322;2024-03-02T02:45:09;18.63;;;11.48;;
26864;SDS011;40618;51.166;10.322;2024-03-02T02:47:37;19.63;;;12.10;;
26864;SDS011;40618;51.166;10.322;2024-03-02T02:50:03;18.25;;;11.75;;
26864;SDS011;40618;51.166;10.322;2024-03-02T02:52:32;17.17;;;11.77;;
26864;SDS011;40618;51.166;10.322;2024-03-02T02:55:02;18.88;;;12.40;;
26864;SDS011;40618;51.166;10.322;2024-03-02T02:57:29;17.27;;;12.35;;
26864;SDS011;40618;51.166;10.322;2024-03-02T03:00:00;19.08;;;12.02;;
26864;SDS011;40618;51.166;10.322;2024-03-02T03:02:30;19.73;;;11.25;;
26864;SDS011;40618;51.166;10.322;2024-03-02T03:04:57;20.10;;;11.18;;
26864;SDS011;40618;51.166;10.322;2024-03-02T03:07:24;17.33;;;11.50;;
26864;SDS011;40618;51.166;10.322;2024-03-02T03:09:50;19.85;;;12.27;;
26864;SDS011;40618;51.166;10.322;2024-03-02T03:12:16;16.33;;;11.90;;
26864;SDS011;40618;51.166;10.322;2024-03-02T03:14:43;21.60;;;13.25;;
26864;SDS011;40618;51.166;10.322;2024-03-02T03:17:09;21.92;;;12.48;;
26864;SDS011;40618;51.166;10.322;2024-03-02T03:19:34;21.23;;;12.23;;
26864;SDS011;40618;51.166;10.322;2024-03-02T03:22:01;20.27;;;12.80;;
26864;SDS011;40618;51.166;10.322;2024-03-02T03:24:26;20.02;;;12.43;;
26864;SDS011;40618;51.166;10.322;2024-03-02T03:26:52;19.60;;;12.35;;
26864;SDS011;40618;51.166;10.322;2024-03-02T03:29:18;20.65;;;12.48;;
26864;SDS011;40618;51.166;10.322;2024-03-02T03:31:43;18.77;;;12.20;;
26864;SDS011;40618;51.166;10.322;2024-03-02T03:34:10;20.15;;;12.57;;
26864;SDS011;40618;51.166;10.322;2024-03-02T03:36:41;18.80;;;11.50;;
26864;SDS011;40618;51.166;10.322;2024-03-02T03:39:07;20.83;;;12.32;;
26864;SDS011;40618;51.166;10.322;2024-03-02T03:41:33;20.63;;;12.45;;
26864;SDS011;40618;51.166;10.322;2024-03-02T03:43:58;18.67;;;12.45;;
26864;SDS011;40618;51.166;10.322;2024-03-02T03:46:24;18.13;;;11.77;;
26864;SDS011;40618;51.166;10.322;2024-03-02T03:48:49;16.20;;;11.27;;
26864;SDS011;40618;51.166;10.322;2024-03-02T03:51:15;18.50;;;10.73;;
26864;SDS011;40618;51.166;10.322;2024-03-02T03:53:41;20.58;;;11.70;;
26864;SDS011;40618;51.166;10.322;2024-03-02T03:56:06;18.15;;;10.82;;
26864;SDS011;40618;51.166;10.322;2024-03-02T03:58:32;19.30;;;12.02;;
26864;SDS011;40618;51.166;10.322;2024-03-02T04:00:58;19.63;;;11.65;;
26864;SDS011;40618;51.166;10.322;2024-03-02T04:03:23;19.98;;;11.88;;
26864;SDS011;40618;51.166;10.322;2024-03-02T04:05:49;17.90;;;11.95;;
26864;SDS011;40618;51.166;10.322;2024-03-02T04:08:15;20.80;;;11.70;;
26864;SDS011;40618;51.166;10.322;2024-03-02T04:10:43;16.73;;;10.95;;
26864;SDS011;40618;51.166;10.322;2024-03-02T04:13:10;17.08;;;11.25;;
26864;SDS011;40618;51.166;10.322;2024-03-02T04:15:37;17.52;;;11.50;;
26864;SDS011;40618;51.166;10.322;2024-03-02T04:18:02;19.48;;;11.82;;
26864;SDS011;40618;51.166;10.322;2024-03-02T04:20:29;16.40;;;10.52;;
26864;SDS011;40618;51.166;10.322;2024-03-02T04:22:55;20.10;;;11.73;;
26864;SDS011;40618;51.166;10.322;2024-03-02T04:25:21;18.60;;;10.88;;
26864;SDS011;40618;51.166;10.322;2024-03-02T04:27:48;17.10;;;11.05;;
26864;SDS011;40618;51.166;10.322;2024-03-02T04:30:14;18.92;;;11.75;;
26864;SDS011;40618;51.166;10.322;2024-03-02T04:32:42;15.00;;;10.27;;
26864;SDS011;40618;51.166;10.322;2024-03-02T04:35:11;17.45;;;10.93;;
26864;SDS011;40618;51.166;10.322;2024-03-02T04:37:57;15.90;;;10.20;;
26864;SDS011;40618;51.166;10.322;2024-03-02T04:40:23;15.48;;;9.63;;
26864;SDS011;40618;51.166;10.322;2024-03-02T04:42:50;16.60;;;10.43;;
26864;SDS011;40618;51.166;10.322;2024-03-02T04:45:16;16.85;;;9.38;;
26864;SDS011;40618;51.166;10.322;2024-03-02T04:47:41;18.25;;;10.02;;
26864;SDS011;40618;51.166;10.322;2024-03-02T04:50:08;16.52;;;10.48;;
26864;SDS011;40618;51.166;10.322;2024-03-02T04:52:35;17.85;;;10.40;;
26864;SDS011;40618;51.166;10.322;2024-03-02T04:55:02;17.73;;;10.57;;
26864;SDS011;40618;51.166;10.322;2024-03-02T04:57:41;16.58;;;10.70;;
26864;SDS011;40618;51.166;10.322;2024-03-02T05:00:07;17.60;;;10.40;;
26864;SDS011;40618;51.166;10.322;2024-03-02T05:02:34;16.52;;;10.75;;
26864;SDS011;40618;51.166;10.322;2024-03-02T05:05:00;15.73;;;9.73;;
26864;SDS011;40618;51.166;10.322;2024-03-02T05:07:27;16.50;;;10.52;;
26864;SDS011;40618;51.166;10.322;2024-03-02T05:09:53;15.40;;;9.95;;
26864;SDS011;40618;51.166;10.322;2024-03-02T05:12:19;17.60;;;11.02;;
26864;SDS011;40618;51.166;10.322;2024-03-02T05:15:03;18.58;;;10.27;;
26864;SDS011;40618;51.166;10.322;2024-03-02T05:17:29;17.25;;;10.55;;
26864;SDS011;40618;51.166;10.322;2024-03-02T05:19:55;17.02;;;10.05;;
26864;SDS011;40618;51.166;10.322;2024-03-02T05:22:22;15.20;;;10.27;;
26864;SDS011;40618;51.166;10.322;2024-03-02T05:24:47;16.58;;;9.52;;
26864;SDS011;40618;51.166;10.322;2024-03-02T05:27:13;21.17;;;11.73;;
26864;SDS011;40618;51.166;10.322;2024-03-02T05:29:39;17.73;;;10.73;;
26864;SDS011;40618;51.166;10.322;2024-03-02T05:32:05;17.90;;;10.80;;
26864;SDS011;40618;51.166;10.322;2024-03-02T05:34:31;20.10;;;10.50;;
26864;SDS011;40618;51.166;10.322;2024-03-02T05:36:58;19.55;;;11.05;;
26864;SDS011;40618;51.166;10.322;2024-03-02T05:39:23;17.27;;;10.65;;
26864;SDS011;40618;51.166;10.322;2024-03-02T05:41:49;18.23;;;11.73;;
26864;SDS011;40618;51.166;10.322;2024-03-02T05:44:14;19.30;;;11.13;;
26864;SDS011;40618;51.166;10.322;2024-03-02T05:46:40;22.05;;;11.48;;
26864;SDS011;40618;51.166;10.322;2024-03-02T05:49:07;19.55;;;11.82;;
26864;SDS011;40618;51.166;10.322;2024-03-02T05:51:34;20.90;;;12.25;;
26864;SDS011;40618;51.166;10.322;2024-03-02T05:54:00;19.98;;;11.88;;
26864;SDS011;40618;51.166;10.322;2024-03-02T05:56:26;19.80;;;11.63;;
26864;SDS011;40618;51.166;10.322;2024-03-02T05:58:52;20.08;;;11.95;;
26864;SDS011;40618;51.166;10.322;2024-03-02T06:01:37;21.48;;;11.55;;
26864;SDS011;40618;51.166;10.322;2024-03-02T06:04:02;19.63;;;12.40;;
26864;SDS011;40618;51.166;10.322;2024-03-02T06:06:28;19.33;;;11.77;;
26864;SDS011;40618;51.166;10.322;2024-03-02T06:08:55;20.40;;;11.93;;
26864;SDS011;40618;51.166;10.322;2024-03-02T06:11:23;18.80;;;11.55;;
26864;SDS011;40618;51.166;10.322;2024-03-02T06:13:48;20.38;;;11.88;;
26864;SDS011;40618;51.166;10.322;2024-03-02T06:16:14;20.50;;;12.55;;
26864;SDS011;40618;51.166;10.322;2024-03-02T06:18:39;23.58;;;12.23;;
26864;SDS011;40618;51.166;10.322;2024-03-02T06:21:05;21.75;;;12.77;;
26864;SDS011;40618;51.166;10.322;2024-03-02T06:23:30;18.58;;;12.32;;
26864;SDS011;40618;51.166;10.322;2024-03-02T06:25:57;22.27;;;12.48;;
26864;SDS011;40618;51.166;10.322;2024-03-02T06:28:22;19.23;;;11.80;;
26864;SDS011;40618;51.166;10.322;2024-03-02T06:30:48;18.15;;;11.68;;
26864;SDS011;40618;51.166;10.322;2024-03-02T06:33:14;22.85;;;12.68;;
26864;SDS011;40618;51.166;10.322;2024-03-02T06:35:39;20.95;;;12.45;;
26864;SDS011;40618;51.166;10.322;2024-03-02T06:38:06;20.77;;;12.27;;
26864;SDS011;40618;51.166;10.322;2024-03-02T06:40:31;19.95;;;12.15;;
26864;SDS011;40618;51.166;10.322;2024-03-02T06:42:57;20.48;;;12.90;;
26864;SDS011;40618;51.166;10.322;2024-03-02T06:45:24;18.67;;;11.98;;
26864;SDS011;40618;51.166;10.322;2024-03-02T06:47:50;20.90;;;13.02;;
26864;SDS011;40618;51.166;10.322;2024-03-02T06:50:16;23.55;;;12.55;;
26864;SDS011;40618;51.166;10.322;2024-03-02T06:52:41;30.20;;;18.23;;
26864;SDS011;40618;51.166;10.322;2024-03-02T06:55:08;28.20;;;17.70;;
26864;SDS011;40618;51.166;10.322;2024-03-02T06:57:34;34.78;;;18.92;;
26864;SDS011;40618;51.166;10.322;2024-03-02T06:59:59;25.13;;;16.73;;
26864;SDS011;40618;51.166;10.322;2024-03-02T07:02:25;25.02;;;15.63;;
26864;SDS011;40618;51.166;10.322;2024-03-02T07:04:52;25.10;;;14.82;;
26864;SDS011;40618;51.166;10.322;2024-03-02T07:07:20;19.45;;;13.00;;
26864;SDS011;40618;51.166;10.322;2024-03-02T07:09:46;21.88;;;12.80;;
26864;SDS011;40618;51.166;10.322;2024-03-02T07:12:13;19.73;;;12.27;;
26864;SDS011;40618;51.166;10.322;2024-03-02T07:14:39;21.15;;;12.20;;
26864;SDS011;40618;51.166;10.322;2024-03-02T07:17:23;16.50;;;10.65;;
26864;SDS011;40618;51.166;10.322;2024-03-02T07:19:48;20.75;;;11.98;;
26864;SDS011;40618;51.166;10.322;2024-03-02T07:22:15;19.52;;;11.90;;
26864;SDS011;40618;51.166;10.322;2024-03-02T07:24:41;22.55;;;12.77;;
26864;SDS011;40618;51.166;10.322;2024-03-02T07:27:11;21.50;;;12.35;;
26864;SDS011;40618;51.166;10.322;2024-03-02T07:32:05;18.38;;;10.93;;
26864;SDS011;40618;51.166;10.322;2024-03-02T07:34:33;19.05;;;10.52;;
26864;SDS011;40618;51.166;10.322;2024-03-02T07:36:59;19.52;;;11.98;;
26864;SDS011;40618;51.166;10.322;2024-03-02T07:39:26;20.92;;;12.52;;
26864;SDS011;40618;51.166;10.322;2024-03-02T07:41:54;21.55;;;12.90;;
26864;SDS011;40618;51.166;10.322;2024-03-02T07:44:20;19.60;;;11.93;;
26864;SDS011;40618;51.166;10.322;2024-03-02T07:46:46;20.50;;;12.70;;
26864;SDS011;40618;51.166;10.322;2024-03-02T07:49:12;20.25;;;13.18;;
26864;SDS011;40618;51.166;10.322;2024-03-02T07:51:41;23.42;;;14.35;;
26864;SDS011;40618;51.166;10.322;2024-03-02T07:54:08;23.23;;;14.07;;
26864;SDS011;40618;51.166;10.322;2024-03-02T07:56:35;26.45;;;14.98;;
26864;SDS011;40618;51.166;10.322;2024-03-02T07:59:02;24.23;;;14.75;;
26864;SDS011;40618;51.166;10.322;2024-03-02T08:01:29;26.75;;;15.88;;
26864;SDS011;40618;51.166;10.322;2024-03-02T08:03:57;24.02;;;15.32;;
26864;SDS011;40618;51.166;10.322;2024-03-02T08:06:26;24.60;;;15.55;;
26864;SDS011;40618;51.166;10.322;2024-03-02T08:08:59;27.77;;;16.33;;
26864;SDS011;40618;51.166;10.322;2024-03-02T08:11:26;23.98;;;14.88;;
26864;SDS011;40618;51.166;10.322;2024-03-02T08:13:53;27.63;;;15.63;;
26864;SDS011;40618;51.166;10.322;2024-03-02T08:16:20;31.33;;;20.35;;
26864;SDS011;40618;51.166;10.322;2024-03-02T08:18:48;29.42;;;19.23;;
26864;SDS011;40618;51.166;10.322;2024-03-02T08:21:16;25.52;;;16.92;;
26864;SDS011;40618;51.166;10.322;2024-03-02T08:23:42;26.10;;;17.15;;
26864;SDS011;40618;51.166;10.322;2024-03-02T08:26:08;25.42;;;17.05;;
26864;SDS011;40618;51.166;10.322;2024-03-02T08:28:35;23.17;;;14.43;;
26864;SDS011;40618;51.166;10.322;2024-03-02T08:31:07;22.55;;;15.10;;
26864;SDS011;40618;51.166;10.322;2024-03-02T08:33:33;24.13;;;13.82;;
26864;SDS011;40618;51.166;10.322;2024-03-02T08:35:59;21.75;;;14.07;;
26864;SDS011;40618;51.166;10.322;2024-03-02T08:38:26;19.08;;;12.55;;
26864;SDS011;40618;51.166;10.322;2024-03-02T08:40:52;18.23;;;11.82;;
26864;SDS011;40618;51.166;10.322;2024-03-02T08:43:19;18.45;;;11.95;;
26864;SDS011;40618;51.166;10.322;2024-03-02T08:46:10;17.55;;;11.55;;
26864;SDS011;40618;51.166;10.322;2024-03-02T08:48:36;18.33;;;10.50;;
26864;SDS011;40618;51.166;10.322;2024-03-02T08:51:02;18.13;;;10.00;;
26864;SDS011;40618;51.166;10.322;2024-03-02T08:53:31;16.60;;;10.75;;
26864;SDS011;40618;51.166;10.322;2024-03-02T08:55:56;19.15;;;12.02;;
26864;SDS011;40618;51.166;10.322;2024-03-02T08:58:25;15.52;;;10.65;;
26864;SDS011;40618;51.166;10.322;2024-03-02T09:00:51;17.90;;;11.43;;
26864;SDS011;40618;51.166;10.322;2024-03-02T09:03:16;16.67;;;11.13;;
26864;SDS011;40618;51.166;10.322;2024-03-02T09:05:43;18.48;;;10.88;;
26864;SDS011;40618;51.166;10.322;2024-03-02T09:08:10;19.90;;;11.65;;
26864;SDS011;40618;51.166;10.322;2024-03-02T09:10:35;14.32;;;9.55;;
26864;SDS011;40618;51.166;10.322;2024-03-02T09:13:01;15.68;;;10.70;;
26864;SDS011;40618;51.166;10.322;2024-03-02T09:15:27;16.58;;;11.23;;
26864;SDS011;40618;51.166;10.322;2024-03-02T09:17:53;14.50;;;9.13;;
26864;SDS011;40618;51.166;10.322;2024-03-02T09:20:18;14.43;;;9.23;;
26864;SDS011;40618;51.166;10.322;2024-03-02T09:22:44;14.90;;;10.20;;
26864;SDS011;40618;51.166;10.322;2024-03-02T09:25:12;15.52;;;9.80;;
26864;SDS011;40618;51.166;10.322;2024-03-02T09:27:39;14.88;;;10.40;;
26864;SDS011;40618;51.166;10.322;2024-03-02T09:30:07;14.90;;;9.63;;
26864;SDS011;40618;51.166;10.322;2024-03-02T09:32:34;13.60;;;9.63;;
26864;SDS011;40618;51.166;10.322;2024-03-02T09:34:59;15.57;;;10.13;;
26864;SDS011;40618;51.166;10.322;2024-03-02T09:37:25;16.70;;;10.30;;
26864;SDS011;40618;51.166;10.322;2024-03-02T09:39:51;15.23;;;9.52;;
26864;SDS011;40618;51.166;10.322;2024-03-02T09:42:17;15.25;;;9.68;;
26864;SDS011;40618;51.166;10.322;2024-03-02T09:44:43;14.65;;;10.02;;
26864;SDS011;40618;51.166;10.322;2024-03-02T09:47:09;15.52;;;10.02;;
26864;SDS011;40618;51.166;10.322;2024-03-02T09:49:36;15.38;;;10.32;;
26864;SDS011;40618;51.166;10.322;2024-03-02T09:52:02;16.38;;;9.57;;
26864;SDS011;40618;51.166;10.322;2024-03-02T09:54:29;16.00;;;10.05;;
26864;SDS011;40618;51.166;10.322;2024-03-02T09:56:54;12.93;;;9.30;;
26864;SDS011;40618;51.166;10.322;2024-03-02T09:59:20;14.40;;;9.27;;
26864;SDS011;40618;51.166;10.322;2024-03-02T10:01:56;15.68;;;9.23;;
26864;SDS011;40618;51.166;10.322;2024-03-02T10:04:26;15.63;;;10.65;;
26864;SDS011;40618;51.166;10.322;2024-03-02T10:09:42;14.05;;;9.73;;
26864;SDS011;40618;51.166;10.322;2024-03-02T10:12:10;16.70;;;10.43;;
26864;SDS011;40618;51.166;10.322;2024-03-02T10:14:37;15.23;;;9.55;;
26864;SDS011;40618;51.166;10.322;2024-03-02T10:19:35;14.77;;;9.38;;
26864;SDS011;40618;51.166;10.322;2024-03-02T10:22:04;14.18;;;9.65;;
26864;SDS011;40618;51.166;10.322;2024-03-02T10:27:09;14.93;;;9.43;;
26864;SDS011;40618;51.166;10.322;2024-03-02T10:29:46;13.18;;;8.20;;
26864;SDS011;40618;51.166;10.322;2024-03-02T10:32:13;16.10;;;10.35;;
26864;SDS011;40618;51.166;10.322;2024-03-02T10:34:45;18.30;;;11.35;;
26864;SDS011;40618;51.166;10.322;2024-03-02T10:37:12;15.10;;;10.02;;
26864;SDS011;40618;51.166;10.322;2024-03-02T10:39:40;14.13;;;9.25;;
26864;SDS011;40618;51.166;10.322;2024-03-02T10:42:06;15.20;;;10.75;;
26864;SDS011;40618;51.166;10.322;2024-03-02T10:44:32;21.58;;;10.77;;
26864;SDS011;40618;51.166;10.322;2024-03-02T10:47:00;18.15;;;9.90;;
26864;SDS011;40618;51.166;10.322;2024-03-02T10:49:29;14.50;;;10.27;;
26864;SDS011;40618;51.166;10.322;2024-03-02T10:51:57;15.00;;;10.13;;
26864;SDS011;40618;51.166;10.322;2024-03-02T10:54:26;12.90;;;8.73;;
26864;SDS011;40618;51.166;10.322;2024-03-02T10:57:01;13.50;;;9.18;;
26864;SDS011;40618;51.166;10.322;2024-03-02T10:59:33;12.55;;;8.15;;
26864;SDS011;40618;51.166;10.322;2024-03-02T11:02:02;12.07;;;8.52;;
26864;SDS011;40618;51.166;10.322;2024-03-02T11:04:30;13.77;;;8.27;;
26864;SDS011;40618;51.166;10.322;2024-03-02T11:07:17;10.07;;;6.97;;
26864;SDS011;40618;51.166;10.322;2024-03-02T11:09:54;11.80;;;7.72;;
26864;SDS011;40618;51.166;10.322;2024-03-02T11:12:31;9.70;;;7.28;;
26864;SDS011;40618;51.166;10.322;2024-03-02T11:15:04;11.93;;;8.35;;
26864;SDS011;40618;51.166;10.322;2024-03-02T11:17:36;12.90;;;9.63;;
26864;SDS011;40618;51.166;10.322;2024-03-02T11:20:05;14.48;;;9.65;;
26864;SDS011;40618;51.166;10.322;2024-03-02T11:22:34;12.63;;;8.85;;
26864;SDS011;40618;51.166;10.322;2024-03-02T11:25:02;12.35;;;9.13;;
26864;SDS011;40618;51.166;10.322;2024-03-02T11:33:05;15.60;;;8.98;;
26864;SDS011;40618;51.166;10.322;2024-03-02T11:35:37;13.80;;;7.57;;
26864;SDS011;40618;51.166;10.322;2024-03-02T11:38:11;13.73;;;8.85;;
26864;SDS011;40618;51.166;10.322;2024-03-02T11:40:38;11.20;;;7.90;;
26864;SDS011;40618;51.166;10.322;2024-03-02T11:43:06;12.35;;;8.05;;
26864;SDS011;40618;51.166;10.322;2024-03-02T11:45:36;7.95;;;5.60;;
26864;SDS011;40618;51.166;10.322;2024-03-02T11:48:08;12.30;;;7.43;;
26864;SDS011;40618;51.166;10.322;2024-03-02T11:50:47;15.88;;;7.93;;
26864;SDS011;40618;51.166;10.322;2024-03-02T11:53:15;20.05;;;8.40;;
26864;SDS011;40618;51.166;10.322;2024-03-02T11:55:43;10.55;;;7.68;;
26864;SDS011;40618;51.166;10.322;2024-03-02T11:58:13;16.10;;;8.57;;
26864;SDS011;40618;51.166;10.322;2024-03-02T12:00:40;11.88;;;7.75;;
26864;SDS011;40618;51.166;10.322;2024-03-02T12:03:06;13.73;;;8.68;;
26864;SDS011;40618;51.166;10.322;2024-03-02T12:05:34;10.43;;;6.82;;
26864;SDS011;40618;51.166;10.322;2024-03-02T12:08:02;11.43;;;6.40;;
26864;SDS011;40618;51.166;10.322;2024-03-02T12:10:31;8.68;;;5.97;;
26864;SDS011;40618;51.166;10.322;2024-03-02T12:12:58;9.10;;;6.00;;
26864;SDS011;40618;51.166;10.322;2024-03-02T12:15:33;7.90;;;5.75;;
26864;SDS011;40618;51.166;10.322;2024-03-02T12:18:04;10.25;;;6.07;;
26864;SDS011;40618;51.166;10.322;2024-03-02T12:20:31;10.15;;;5.95;;
26864;SDS011;40618;51.166;10.322;2024-03-02T12:22:59;6.47;;;4.47;;
26864;SDS011;40618;51.166;10.322;2024-03-02T12:25:27;4.85;;;3.85;;
26864;SDS011;40618;51.166;10.322;2024-03-02T12:27:54;4.85;;;3.47;;
26864;SDS011;40618;51.166;10.322;2024-03-02T12:30:22;7.22;;;3.38;;
26864;SDS011;40618;51.166;10.322;2024-03-02T12:32:48;5.47;;;3.90;;
26864;SDS011;40618;51.166;10.322;2024-03-02T12:35:15;8.52;;;5.22;;
26864;SDS011;40618;51.166;10.322;2024-03-02T12:37:43;6.68;;;4.35;;
26864;SDS011;40618;51.166;10.322;2024-03-02T12:40:17;7.47;;;4.93;;
26864;SDS011;40618;51.166;10.322;2024-03-02T12:42:45;6.70;;;4.47;;
26864;SDS011;40618;51.166;10.322;2024-03-02T12:45:12;5.50;;;4.47;;
26864;SDS011;40618;51.166;10.322;2024-03-02T12:47:39;8.48;;;4.80;;
26864;SDS011;40618;51.166;10.322;2024-03-02T12:50:07;6.68;;;4.90;;
26864;SDS011;40618;51.166;10.322;2024-03-02T12:52:34;5.60;;;4.35;;
26864;SDS011;40618;51.166;10.322;2024-03-02T12:55:01;7.82;;;4.97;;
26864;SDS011;40618;51.166;10.322;2024-03-02T12:57:32;8.60;;;5.78;;
26864;SDS011;40618;51.166;10.322;2024-03-02T13:00:03;8.02;;;5.75;;
26864;SDS011;40618;51.166;10.322;2024-03-02T13:02:41;7.65;;;6.05;;
26864;SDS011;40618;51.166;10.322;2024-03-02T13:05:08;7.32;;;5.18;;
26864;SDS011;40618;51.166;10.322;2024-03-02T13:07:39;7.25;;;5.43;;
26864;SDS011;40618;51.166;10.322;2024-03-02T13:10:09;5.63;;;4.18;;
26864;SDS011;40618;51.166;10.322;2024-03-02T13:12:35;7.28;;;4.70;;
26864;SDS011;40618;51.166;10.322;2024-03-02T13:15:09;7.90;;;4.70;;
26864;SDS011;40618;51.166;10.322;2024-03-02T13:17:35;6.95;;;5.05;;
26864;SDS011;40618;51.166;10.322;2024-03-02T13:20:02;7.25;;;5.18;;
26864;SDS011;40618;51.166;10.322;2024-03-02T13:22:29;8.43;;;5.68;;
26864;SDS011;40618;51.166;10.322;2024-03-02T13:24:55;9.65;;;6.25;;
26864;SDS011;40618;51.166;10.322;2024-03-02T13:27:20;7.70;;;5.28;;
26864;SDS011;40618;51.166;10.322;2024-03-02T13:29:46;8.05;;;4.80;;
26864;SDS011;40618;51.166;10.322;2024-03-02T13:32:13;8.52;;;5.78;;
26864;SDS011;40618;51.166;10.322;2024-03-02T13:34:40;6.57;;;4.55;;
26864;SDS011;40618;51.166;10.322;2024-03-02T13:37:06;10.18;;;6.82;;
26864;SDS011;40618;51.166;10.322;2024-03-02T13:39:32;9.90;;;6.20;;
26864;SDS011;40618;51.166;10.322;2024-03-02T13:42:04;11.85;;;8.23;;
26864;SDS011;40618;51.166;10.322;2024-03-02T13:44:33;13.57;;;8.90;;
26864;SDS011;40618;51.166;10.322;2024-03-02T13:47:00;9.05;;;5.93;;
26864;SDS011;40618;51.166;10.322;2024-03-02T13:49:26;8.40;;;6.55;;
26864;SDS011;40618;51.166;10.322;2024-03-02T13:52:05;7.15;;;5.68;;
26864;SDS011;40618;51.166;10.322;2024-03-02T13:54:42;16.60;;;10.00;;
26864;SDS011;40618;51.166;10.322;2024-03-02T13:57:10;14.75;;;9.02;;
26864;SDS011;40618;51.166;10.322;2024-03-02T13:59:38;10.48;;;6.55;;
26864;SDS011;40618;51.166;10.322;2024-03-02T14:02:05;7.18;;;5.38;;
26864;SDS011;40618;51.166;10.322;2024-03-02T14:04:35;6.30;;;4.68;;
26864;SDS011;40618;51.166;10.322;2024-03-02T14:07:02;7.68;;;5.20;;
26864;SDS011;40618;51.166;10.322;2024-03-02T14:09:29;4.78;;;3.95;;
26864;SDS011;40618;51.166;10.322;2024-03-02T14:11:55;7.63;;;4.75;;
26864;SDS011;40618;51.166;10.322;2024-03-02T14:14:22;7.88;;;5.35;;
26864;SDS011;40618;51.166;10.322;2024-03-02T14:16:48;6.82;;;5.25;;
26864;SDS011;40618;51.166;10.322;2024-03-02T14:19:14;6.63;;;4.28;;
26864;SDS011;40618;51.166;10.322;2024-03-02T14:21:41;6.05;;;4.10;;
26864;SDS011;40618;51.166;10.322;2024-03-02T14:24:07;6.28;;;4.35;;
26864;SDS011;40618;51.166;10.322;2024-03-02T14:26:33;6.03;;;4.15;;
26864;SDS011;40618;51.166;10.322;2024-03-02T14:28:59;5.45;;;4.43;;
26864;SDS011;40618;51.166;10.322;2024-03-02T14:31:29;7.40;;;4.47;;
26864;SDS011;40618;51.166;10.322;2024-03-02T14:33:56;5.13;;;3.88;;
26864;SDS011;40618;51.166;10.322;2024-03-02T14:36:22;6.75;;;4.18;;
26864;SDS011;40618;51.166;10.322;2024-03-02T14:38:48;5.78;;;4.40;;
26864;SDS011;40618;51.166;10.322;2024-03-02T14:41:14;5.80;;;4.47;;
26864;SDS011;40618;51.166;10.322;2024-03-02T14:43:40;5.28;;;3.78;;
26864;SDS011;40618;51.166;10.322;2024-03-02T14:46:06;6.47;;;5.10;;